KCTZ/CTZ METAR and TAF weather

Enter ICAO airport designator
Station Type Date Time Source
KCTZ METAR 2019/09/21 04:55 UTC NOAA

KCTZ 210455Z AUTO 00000KT 10SM CLR 16/16 A3030 RMK AO2 T01600160


Station Type Date Time Source
KCTZ Decoded METAR 2019/09/21 04:55 UTC NOAA

Clinton, Sampson County Airport, NC, United States (KCTZ) 34-58-32N 078-21-53W
Sep 21, 2019 - 12:55 AM EDT / 2019.09.21 0455 UTC
Wind: Calm:0
Visibility: 10 mile(s):0
Sky conditions: clear
Temperature: 60.8 F (16.0 C)
Dew Point: 60.8 F (16.0 C)
Relative Humidity: 100%
Pressure (altimeter): 30.3 in. Hg (1026 hPa)
ob: KCTZ 210455Z AUTO 00000KT 10SM CLR 16/16 A3030 RMK AO2 T01600160
cycle: 5

Station Type Date Time Source
KCTZ TAF UTC NOAA

Error!

Example: see airport list